createdAt,value
2023-04-14T00:00:13.230Z,9.70
2023-04-14T00:05:36.441Z,9.70
2023-04-14T00:10:40.063Z,9.70
2023-04-14T00:15:43.304Z,9.70
2023-04-14T00:20:48.025Z,9.70
2023-04-14T00:25:51.406Z,9.70
2023-04-14T00:30:54.722Z,9.70
2023-04-14T00:35:57.902Z,9.70
2023-04-14T00:41:01.463Z,9.60
2023-04-14T00:46:04.748Z,9.60
2023-04-14T00:51:09.398Z,9.60
2023-04-14T00:56:12.914Z,9.60
2023-04-14T01:01:16.716Z,9.70
2023-04-14T01:06:19.904Z,9.60
2023-04-14T01:11:41.257Z,9.30
2023-04-14T01:16:46.010Z,9.40
2023-04-14T01:21:53.839Z,9.50
2023-04-14T01:27:07.479Z,9.50
2023-04-14T01:32:15.138Z,9.60
2023-04-14T01:37:25.806Z,9.70
2023-04-14T01:42:33.659Z,9.70
2023-04-14T01:47:37.354Z,9.70
2023-04-14T01:52:43.075Z,9.70
2023-04-14T01:57:48.959Z,9.60
2023-04-14T02:02:53.940Z,9.70
2023-04-14T02:07:59.802Z,9.70
2023-04-14T02:13:04.318Z,9.60
2023-04-14T02:18:08.402Z,9.60
2023-04-14T02:23:15.277Z,9.30
2023-04-14T02:28:24.985Z,9.10
2023-04-14T02:33:33.740Z,9.10
2023-04-14T02:38:47.057Z,9.10
2023-04-14T02:43:58.380Z,9.10
2023-04-14T02:49:04.409Z,9.10
2023-04-14T02:54:08.136Z,9.20
2023-04-14T02:59:12.876Z,9.30
2023-04-14T03:04:18.094Z,9.30
2023-04-14T03:09:22.534Z,9.40
2023-04-14T03:14:26.957Z,9.30
2023-04-14T03:19:32.050Z,9.10
2023-04-14T03:24:36.487Z,9.00
2023-04-14T03:29:47.371Z,8.90
2023-04-14T03:34:54.591Z,8.90
2023-04-14T03:40:01.617Z,8.80
2023-04-14T03:45:05.567Z,8.90
2023-04-14T03:50:10.636Z,9.00
2023-04-14T03:55:16.129Z,8.90
2023-04-14T04:00:21.173Z,8.90
2023-04-14T04:05:25.089Z,8.80
2023-04-14T04:10:36.101Z,8.70
2023-04-14T04:15:41.303Z,8.70
2023-04-14T04:20:46.713Z,8.70
2023-04-14T04:25:50.628Z,8.80
2023-04-14T04:30:57.378Z,8.80
2023-04-14T04:36:01.707Z,8.80
2023-04-14T04:41:05.009Z,8.90
2023-04-14T04:46:26.738Z,8.90
2023-04-14T04:51:30.109Z,9.00
2023-04-14T04:56:34.032Z,8.90
2023-04-14T05:01:37.377Z,8.90
2023-04-14T05:06:40.655Z,8.90
2023-04-14T05:11:44.011Z,8.90
2023-04-14T05:16:47.654Z,8.90
2023-04-14T05:21:51.102Z,8.90
2023-04-14T05:27:12.210Z,8.90
2023-04-14T05:32:16.887Z,8.90
2023-04-14T05:37:20.351Z,8.90
2023-04-14T05:42:23.962Z,8.90
2023-04-14T05:47:27.232Z,9.00
2023-04-14T05:52:30.457Z,9.10
2023-04-14T05:57:33.601Z,9.10
2023-04-14T06:02:37.294Z,9.20
2023-04-14T06:07:43.624Z,9.30
2023-04-14T06:12:47.057Z,9.50
2023-04-14T06:17:50.393Z,9.60
2023-04-14T06:22:53.760Z,9.70
2023-04-14T06:27:57.492Z,10.00
2023-04-14T06:33:04.846Z,10.10
2023-04-14T06:38:08.293Z,10.40
2023-04-14T06:43:11.748Z,10.50
2023-04-14T06:48:16.011Z,10.70
2023-04-14T06:53:19.666Z,10.90
2023-04-14T06:58:23.121Z,11.10
2023-04-14T07:03:27.599Z,11.40
2023-04-14T07:08:33.166Z,11.60
2023-04-14T07:13:37.270Z,11.70
2023-04-14T07:18:40.441Z,12.00
2023-04-14T07:23:43.719Z,12.20
2023-04-14T07:28:47.603Z,12.30
2023-04-14T07:33:50.772Z,12.60
2023-04-14T07:38:54.372Z,12.90
2023-04-14T07:43:59.858Z,13.20
2023-04-14T07:49:04.016Z,13.50
2023-04-14T07:54:07.300Z,13.50
2023-04-14T07:59:10.830Z,13.80
2023-04-14T08:04:14.480Z,14.20
2023-04-14T08:09:17.888Z,14.30
2023-04-14T08:14:21.573Z,14.40
2023-04-14T08:19:24.758Z,14.60
2023-04-14T08:24:29.150Z,14.90
2023-04-14T08:29:32.375Z,15.10
2023-04-14T08:34:36.074Z,15.10
2023-04-14T08:39:39.250Z,15.30
2023-04-14T08:44:42.746Z,15.30
2023-04-14T08:50:16.916Z,15.30
2023-04-14T08:55:20.501Z,15.40
2023-04-14T09:00:24.279Z,15.50
2023-04-14T09:05:27.921Z,15.60
2023-04-14T09:10:32.012Z,15.90
2023-04-14T09:15:37.731Z,16.00
2023-04-14T09:20:41.890Z,15.90
2023-04-14T09:25:46.591Z,15.90
2023-04-14T09:30:49.972Z,15.80
2023-04-14T09:35:53.978Z,16.00
2023-04-14T09:40:57.503Z,16.20
2023-04-14T09:46:08.853Z,16.30
2023-04-14T09:51:14.388Z,16.30
2023-04-14T09:56:17.750Z,16.40
2023-04-14T10:01:21.853Z,16.40
2023-04-14T10:06:27.010Z,16.20
2023-04-14T10:11:33.167Z,16.00
2023-04-14T10:16:36.578Z,16.00
2023-04-14T10:21:40.249Z,16.40
2023-04-14T10:26:47.574Z,16.70
2023-04-14T10:31:57.748Z,16.70
2023-04-14T10:37:14.721Z,16.70
2023-04-14T10:42:17.935Z,16.50
2023-04-14T10:47:25.468Z,16.80
2023-04-14T10:52:28.686Z,16.80
2023-04-14T10:57:39.260Z,16.60
2023-04-14T11:02:57.198Z,16.70
2023-04-14T11:08:03.190Z,16.70
2023-04-14T11:13:09.527Z,16.70
2023-04-14T11:18:29.317Z,16.60
2023-04-14T11:23:33.169Z,16.80
2023-04-14T11:28:42.796Z,16.90
2023-04-14T11:33:46.847Z,17.10
2023-04-14T11:38:50.990Z,17.00
2023-04-14T11:43:54.636Z,16.90
2023-04-14T11:48:58.498Z,16.70
2023-04-14T11:54:02.589Z,16.60
2023-04-14T11:59:06.848Z,16.50
2023-04-14T12:04:10.968Z,16.60
2023-04-14T12:09:14.561Z,16.80
2023-04-14T12:14:17.832Z,16.90
2023-04-14T12:19:22.208Z,16.90
2023-04-14T12:24:33.533Z,17.00
2023-04-14T12:29:38.126Z,17.30
2023-04-14T12:34:41.434Z,17.40
2023-04-14T12:40:01.554Z,17.30
2023-04-14T12:45:06.091Z,16.90
2023-04-14T12:50:29.119Z,16.50
2023-04-14T12:55:32.752Z,16.60
2023-04-14T13:00:36.191Z,16.70
2023-04-14T13:05:39.556Z,16.40
2023-04-14T13:10:42.758Z,16.70
2023-04-14T13:16:13.161Z,16.90
2023-04-14T13:21:10.007Z,16.80
2023-04-14T13:26:13.409Z,16.90
2023-04-14T13:31:18.715Z,17.20
2023-04-14T13:36:23.230Z,17.20
2023-04-14T13:41:27.182Z,17.40
2023-04-14T13:46:34.384Z,17.40
2023-04-14T13:51:45.766Z,17.20
2023-04-14T13:56:48.975Z,17.10
2023-04-14T14:01:52.512Z,17.30
2023-04-14T14:06:55.843Z,17.30
2023-04-14T14:11:59.268Z,17.40
2023-04-14T14:17:02.610Z,17.40
2023-04-14T14:22:05.830Z,17.30
2023-04-14T14:27:09.306Z,17.40
2023-04-14T14:32:12.858Z,17.50
2023-04-14T14:37:16.574Z,18.20
2023-04-14T14:42:19.678Z,19.00
2023-04-14T14:47:22.967Z,18.20
2023-04-14T14:52:30.279Z,17.60
2023-04-14T14:57:34.253Z,17.40
2023-04-14T15:02:37.633Z,16.90
2023-04-14T15:07:41.103Z,16.90
2023-04-14T15:12:44.278Z,17.70
2023-04-14T15:17:47.859Z,17.80
2023-04-14T15:22:51.536Z,17.50
2023-04-14T15:27:55.385Z,17.70
2023-04-14T15:32:59.226Z,17.60
2023-04-14T15:38:03.378Z,17.60
2023-04-14T15:43:07.616Z,18.10
2023-04-14T15:48:12.001Z,18.30
2023-04-14T15:53:15.793Z,18.50
2023-04-14T15:58:20.211Z,18.50
2023-04-14T16:03:24.244Z,18.20
2023-04-14T16:08:27.772Z,17.90
2023-04-14T16:13:31.298Z,17.80
2023-04-14T16:18:37.268Z,17.40
2023-04-14T16:23:41.219Z,16.60
2023-04-14T16:28:44.407Z,16.20
2023-04-14T16:33:48.961Z,16.10
2023-04-14T16:38:53.558Z,16.30
2023-04-14T16:43:56.990Z,16.60
2023-04-14T16:49:01.653Z,17.00
2023-04-14T16:54:05.499Z,17.10
2023-04-14T16:59:10.232Z,16.80
2023-04-14T17:04:14.273Z,16.30
2023-04-14T17:09:20.833Z,15.90
2023-04-14T17:14:24.486Z,15.70
2023-04-14T17:19:28.427Z,15.50
2023-04-14T17:24:32.588Z,15.30
2023-04-14T17:29:36.677Z,15.00
2023-04-14T17:34:41.868Z,14.70
2023-04-14T17:39:50.335Z,14.40
2023-04-14T17:44:54.577Z,14.30
2023-04-14T17:49:59.682Z,14.30
2023-04-14T17:55:05.442Z,14.10
2023-04-14T18:00:15.526Z,14.00
2023-04-14T18:05:19.298Z,13.90
2023-04-14T18:10:24.418Z,13.80
2023-04-14T18:15:29.541Z,13.60
2023-04-14T18:20:34.253Z,13.70
2023-04-14T18:30:54.291Z,13.70
2023-04-14T18:36:01.739Z,13.60
2023-04-14T18:41:11.218Z,13.50
2023-04-14T18:46:15.673Z,13.40
2023-04-14T18:51:27.787Z,13.20
2023-04-14T18:56:34.780Z,13.10
2023-04-14T19:01:40.192Z,13.00
2023-04-14T19:06:46.340Z,12.90
2023-04-14T19:11:52.414Z,12.80
2023-04-14T19:16:58.967Z,12.70
2023-04-14T19:22:05.885Z,12.60
2023-04-14T19:27:11.093Z,12.40
2023-04-14T19:32:19.813Z,12.30
2023-04-14T19:37:25.238Z,12.30
2023-04-14T19:42:34.057Z,12.20
2023-04-14T19:47:40.500Z,12.10
2023-04-14T19:52:48.803Z,12.00
2023-04-14T19:57:53.336Z,12.00
2023-04-14T20:03:02.614Z,11.90
2023-04-14T20:08:08.253Z,11.90
2023-04-14T20:13:14.920Z,11.80
2023-04-14T20:18:34.347Z,11.80
2023-04-14T20:23:39.180Z,11.80
2023-04-14T20:28:44.083Z,11.60
2023-04-14T20:33:49.875Z,11.60
2023-04-14T20:38:53.902Z,11.50
2023-04-14T20:44:00.756Z,11.50
2023-04-14T20:49:05.160Z,11.40
2023-04-14T20:54:09.102Z,11.40
2023-04-14T20:59:13.344Z,11.30
2023-04-14T21:04:18.848Z,11.30
2023-04-14T21:09:31.436Z,11.10
2023-04-14T21:15:42.509Z,11.10
2023-04-14T21:20:04.093Z,11.00
2023-04-14T21:25:08.834Z,10.90
2023-04-14T21:30:12.050Z,10.80
2023-04-14T21:35:15.542Z,10.80
2023-04-14T21:40:18.821Z,10.70
2023-04-14T21:45:22.448Z,10.70
2023-04-14T21:50:25.636Z,10.60
2023-04-14T21:55:29.080Z,10.60
2023-04-14T22:00:32.353Z,10.60
2023-04-14T22:05:35.763Z,10.60
2023-04-14T22:10:43.566Z,10.50
2023-04-14T22:15:47.286Z,10.50
2023-04-14T22:20:50.572Z,10.40
2023-04-14T22:25:53.946Z,10.30
2023-04-14T22:30:57.324Z,10.30
2023-04-14T22:36:03.809Z,10.20
2023-04-14T22:41:07.094Z,10.20
2023-04-14T22:46:10.521Z,10.10
2023-04-14T22:51:13.861Z,10.10
2023-04-14T22:56:17.590Z,10.10
2023-04-14T23:01:22.641Z,10.00
2023-04-14T23:06:26.362Z,9.80
2023-04-14T23:11:29.599Z,9.60
2023-04-14T23:16:33.185Z,9.50
2023-04-14T23:21:36.370Z,9.40
2023-04-14T23:26:39.588Z,9.40
2023-04-14T23:31:42.958Z,9.30
2023-04-14T23:36:50.353Z,9.30
2023-04-14T23:41:53.619Z,9.20
2023-04-14T23:46:57.109Z,9.20
2023-04-14T23:52:00.318Z,9.20
2023-04-14T23:57:03.778Z,9.20
